RJNO(METAR)
04/24 09:00
RJNO 240000Z 11009KT 2400 RA FEW003 SCT006 BKN010 BKN020 15/15 Q1010
RMK A2982=
戻る
トップページへ戻る
IMOC Co,.Ltd.